createdAt,value
2019-03-23T08:57:03.486Z,101126.25
2019-03-23T08:59:34.822Z,101126.34
2019-03-23T09:02:06.282Z,101131.84
2019-03-23T09:04:37.942Z,101133.64
2019-03-23T09:07:09.388Z,101137.28
2019-03-23T09:09:40.752Z,101138.59
2019-03-23T09:12:12.297Z,101126.49
2019-03-23T09:14:43.848Z,101129.70
2019-03-23T09:17:15.513Z,101126.03
2019-03-23T09:19:46.973Z,101133.71
2019-03-23T09:22:18.519Z,101120.09
2019-03-23T09:24:50.076Z,101124.34
2019-03-23T09:27:21.524Z,101118.41
2019-03-23T09:29:53.184Z,101114.41
2019-03-23T09:32:24.640Z,101107.94
2019-03-23T09:34:56.502Z,101118.80
2019-03-23T09:37:27.953Z,101122.20
2019-03-23T09:40:09.963Z,101128.27
2019-03-23T09:42:32.897Z,101120.89
2019-03-23T09:45:06.608Z,101123.81
2019-03-23T09:47:37.968Z,101126.53
2019-03-23T09:50:10.440Z,101137.39
2019-03-23T09:52:41.788Z,101143.86
2019-03-23T09:55:13.445Z,101132.91
2019-03-23T09:57:44.798Z,101128.16
2019-03-23T10:00:16.559Z,101139.63
2019-03-23T10:02:47.953Z,101126.45
2019-03-23T10:05:19.563Z,101137.48
2019-03-23T10:07:50.857Z,101126.80
2019-03-23T10:10:22.386Z,101133.50
2019-03-23T10:12:53.929Z,101136.84
2019-03-23T10:15:25.798Z,101139.55
2019-03-23T10:17:57.243Z,101143.48
2019-03-23T10:20:28.898Z,101143.11
2019-03-23T10:23:00.258Z,101142.17
2019-03-23T10:25:31.908Z,101142.11
2019-03-23T10:28:03.366Z,101146.03
2019-03-23T10:30:34.829Z,101142.72
2019-03-23T10:33:06.265Z,101136.43
2019-03-23T10:35:37.824Z,101126.08
2019-03-23T10:38:09.484Z,101135.81
2019-03-23T10:40:42.930Z,101126.02
2019-03-23T10:43:13.884Z,101118.72
2019-03-23T10:45:45.478Z,101128.03
2019-03-23T10:48:17.032Z,101132.15
2019-03-23T10:50:48.479Z,101122.80
2019-03-23T10:53:23.185Z,101122.61
2019-03-23T10:55:53.136Z,101123.16
2019-03-23T10:58:24.504Z,101136.94
2019-03-23T11:00:56.036Z,101133.41
2019-03-23T11:03:27.490Z,101137.04
2019-03-23T11:05:59.150Z,101131.16
2019-03-23T11:08:30.511Z,101157.90
2019-03-23T11:11:02.262Z,101136.73
2019-03-23T11:13:33.808Z,101144.87
2019-03-23T11:16:05.471Z,101146.30
2019-03-23T11:18:37.886Z,101150.30
2019-03-23T11:21:09.317Z,101155.99
2019-03-23T11:23:40.755Z,101137.83
2019-03-23T11:26:12.445Z,101146.38
2019-03-23T11:28:43.866Z,101140.44
2019-03-23T11:31:16.567Z,101136.52
2019-03-23T11:33:48.107Z,101144.48
2019-03-23T11:36:19.659Z,101146.22
2019-03-23T11:38:50.894Z,101148.12
2019-03-23T11:41:22.564Z,101159.23
2019-03-23T11:43:54.432Z,101156.74
2019-03-23T11:46:25.879Z,101150.88
2019-03-23T11:48:57.231Z,101167.06
2019-03-23T11:51:28.894Z,101156.52
2019-03-23T11:54:00.237Z,101152.23
2019-03-23T11:56:31.898Z,101150.92
2019-03-23T11:59:03.273Z,101162.05
2019-03-23T12:01:35.016Z,101171.97
2019-03-23T12:04:06.489Z,101169.63
2019-03-23T12:06:37.738Z,101178.14
2019-03-23T12:09:09.266Z,101170.53
2019-03-23T12:11:40.481Z,101165.40
2019-03-23T12:14:12.172Z,101203.17
2019-03-23T12:16:43.737Z,101177.19
2019-03-23T12:19:15.388Z,101172.53
2019-03-23T12:21:47.149Z,101179.07
2019-03-23T12:24:18.802Z,101177.19
2019-03-23T12:26:50.365Z,101173.09
2019-03-23T12:29:21.832Z,101184.39
2019-03-23T12:31:53.473Z,101180.36
2019-03-23T12:34:25.022Z,101178.88
2019-03-23T12:36:56.683Z,101180.36
2019-03-23T12:39:28.340Z,101181.80
2019-03-23T12:41:59.895Z,101183.29
2019-03-23T12:44:31.553Z,101176.28
2019-03-23T12:47:03.210Z,101183.19
2019-03-23T12:49:34.871Z,101197.03
2019-03-23T12:52:06.322Z,101187.77
2019-03-23T12:54:37.982Z,101183.94
2019-03-23T12:57:09.538Z,101191.40
2019-03-23T12:59:41.198Z,101189.72
2019-03-23T13:02:12.647Z,101194.05
2019-03-23T13:04:44.310Z,101186.19
2019-03-23T13:07:15.862Z,101186.91
2019-03-23T13:09:47.214Z,101189.57
2019-03-23T13:12:18.867Z,101185.92
2019-03-23T13:14:50.222Z,101194.03
2019-03-23T13:17:21.774Z,101193.11
2019-03-23T13:19:53.339Z,101189.91
2019-03-23T13:22:24.988Z,101204.25
2019-03-23T13:24:56.443Z,101202.00
2019-03-23T13:27:28.100Z,101200.88
2019-03-23T13:30:02.008Z,101204.16
2019-03-23T13:32:33.671Z,101222.66
2019-03-23T13:35:05.738Z,101212.66
2019-03-23T13:37:37.290Z,101209.66
2019-03-23T13:40:10.789Z,101215.08
2019-03-23T13:42:42.037Z,101214.91
2019-03-23T13:45:13.492Z,101212.74
2019-03-23T13:47:45.052Z,101222.28
2019-03-23T13:50:27.348Z,101224.51
2019-03-23T13:52:58.709Z,101218.38
2019-03-23T13:55:33.427Z,101241.83
2019-03-23T13:58:09.611Z,101238.17
2019-03-23T14:00:42.068Z,101236.64
2019-03-23T14:03:13.720Z,101249.24
2019-03-23T14:05:45.173Z,101238.94
2019-03-23T14:08:16.832Z,101248.30
2019-03-23T14:10:48.491Z,101236.97
2019-03-23T14:13:19.950Z,101253.23
2019-03-23T14:15:51.805Z,101247.80
2019-03-23T14:18:23.262Z,101249.95
2019-03-23T14:20:55.019Z,101248.39
2019-03-23T14:23:26.469Z,101256.89
2019-03-23T14:25:58.127Z,101254.84
2019-03-23T14:28:29.588Z,101250.35
2019-03-23T14:31:01.445Z,101263.24
2019-03-23T14:33:33.311Z,101269.89
2019-03-23T14:36:04.877Z,101265.41
2019-03-23T14:38:36.624Z,101268.94
2019-03-23T14:41:08.301Z,101273.42
2019-03-23T14:43:40.144Z,101271.55
2019-03-23T14:46:11.908Z,101275.28
2019-03-23T14:48:43.364Z,101283.98
2019-03-23T14:51:15.117Z,101281.47
2019-03-23T14:53:46.979Z,101288.36
2019-03-23T14:56:18.434Z,101290.63
2019-03-23T14:58:53.162Z,101280.67
2019-03-23T15:01:24.721Z,101288.31
2019-03-23T15:03:56.370Z,101292.80
2019-03-23T15:06:27.857Z,101288.51
2019-03-23T15:08:59.585Z,101301.75
2019-03-23T15:11:31.171Z,101297.91
2019-03-23T15:14:02.902Z,101291.28
2019-03-23T15:16:34.458Z,101304.81
2019-03-23T15:19:06.049Z,101304.66
2019-03-23T15:21:37.776Z,101308.84
2019-03-23T15:24:09.532Z,101310.15
2019-03-23T15:26:41.294Z,101315.37
2019-03-23T15:29:12.887Z,101328.00
2019-03-23T15:31:44.616Z,101319.97
2019-03-23T15:34:16.170Z,101326.14
2019-03-23T15:36:47.719Z,101331.58
2019-03-23T15:39:19.175Z,101328.50
2019-03-23T15:41:51.035Z,101331.52
2019-03-23T15:44:22.597Z,101339.97
2019-03-23T15:46:54.351Z,101332.88
2019-03-23T15:49:25.804Z,101349.22
2019-03-23T15:51:57.360Z,101347.83
2019-03-23T15:54:29.158Z,101344.81
2019-03-23T15:57:00.873Z,101358.28
2019-03-23T15:59:32.540Z,101352.35
2019-03-23T16:02:04.202Z,101358.58
2019-03-23T16:04:35.640Z,101363.23
2019-03-23T16:07:07.213Z,101364.75
2019-03-23T16:09:38.566Z,101364.30
2019-03-23T16:12:10.114Z,101359.08
2019-03-23T16:14:41.561Z,101365.14
2019-03-23T16:17:13.114Z,101364.23
2019-03-23T16:19:44.700Z,101370.76
2019-03-23T16:22:16.439Z,101375.27
2019-03-23T16:24:48.194Z,101371.66
2019-03-23T16:27:19.678Z,101377.11
2019-03-23T16:29:51.305Z,101381.88
2019-03-23T16:32:22.860Z,101383.72
2019-03-23T16:34:54.219Z,101384.80
2019-03-23T16:37:26.077Z,101385.11
2019-03-23T16:39:58.857Z,101375.56
2019-03-23T16:42:30.617Z,101389.25
2019-03-23T16:45:02.281Z,101390.80
2019-03-23T16:47:33.946Z,101381.19
2019-03-23T16:50:08.011Z,101389.25
2019-03-23T16:52:39.516Z,101386.87
2019-03-23T16:55:11.568Z,101390.56
2019-03-23T16:57:43.124Z,101392.86
2019-03-23T17:00:16.581Z,101392.55
2019-03-23T17:02:50.763Z,101395.80
2019-03-23T17:05:24.619Z,101407.77
2019-03-23T17:07:58.480Z,101409.17
2019-03-23T17:10:32.504Z,101417.23
2019-03-23T17:13:06.606Z,101409.71
2019-03-23T17:15:40.733Z,101421.07
2019-03-23T17:18:14.725Z,101416.29
2019-03-23T17:20:49.255Z,101408.85
2019-03-23T17:23:23.149Z,101410.39
2019-03-23T17:25:58.678Z,101411.47
2019-03-23T17:28:32.651Z,101419.14
2019-03-23T17:31:06.462Z,101413.55
2019-03-23T17:33:40.734Z,101421.30
2019-03-23T17:36:14.906Z,101414.00
2019-03-23T17:38:50.735Z,101412.06
2019-03-23T17:41:24.706Z,101411.02
2019-03-23T17:43:58.921Z,101409.53
2019-03-23T17:46:35.045Z,101409.98
2019-03-23T17:49:10.179Z,101424.98
2019-03-23T17:51:44.244Z,101417.16
2019-03-23T17:54:18.542Z,101417.69
2019-03-23T17:56:54.035Z,101420.98
2019-03-23T17:59:28.479Z,101427.52
2019-03-23T18:02:02.632Z,101436.06
2019-03-23T18:04:36.711Z,101431.21
2019-03-23T18:07:10.725Z,101436.83
2019-03-23T18:09:45.044Z,101438.23
2019-03-23T18:12:19.223Z,101441.12
2019-03-23T18:14:53.441Z,101441.83
2019-03-23T18:17:27.352Z,101448.36
2019-03-23T18:20:01.880Z,101444.58
2019-03-23T18:22:35.967Z,101446.30
2019-03-23T18:25:12.481Z,101444.36
2019-03-23T18:27:48.593Z,101450.43
2019-03-23T18:30:36.977Z,101444.45
2019-03-23T18:33:10.958Z,101447.51
2019-03-23T18:35:48.175Z,101447.69
2019-03-23T18:38:23.803Z,101441.29
2019-03-23T18:40:57.987Z,101440.97
2019-03-23T18:43:32.658Z,101446.37
2019-03-23T18:46:08.307Z,101451.11
2019-03-23T18:48:42.986Z,101453.03
2019-03-23T18:51:17.828Z,101446.50
2019-03-23T18:53:53.715Z,101453.25
2019-03-23T18:56:27.718Z,101450.73
2019-03-23T18:59:02.006Z,101457.80
2019-03-23T19:01:36.040Z,101456.25
2019-03-23T19:04:12.623Z,101458.25
2019-03-23T19:06:49.403Z,101458.65
2019-03-23T19:09:23.428Z,101461.39
2019-03-23T19:11:57.673Z,101460.47
2019-03-23T19:14:32.169Z,101460.17
2019-03-23T19:17:06.429Z,101462.47
2019-03-23T19:19:40.690Z,101457.33
2019-03-23T19:22:15.038Z,101459.72
2019-03-23T19:24:50.197Z,101462.41
2019-03-23T19:27:24.593Z,101462.92
2019-03-23T19:29:58.899Z,101462.70
2019-03-23T19:32:33.257Z,101463.53
2019-03-23T19:35:07.726Z,101463.41
2019-03-23T19:37:42.228Z,101473.13
2019-03-23T19:40:16.465Z,101470.52
2019-03-23T19:42:50.569Z,101462.77
2019-03-23T19:45:24.701Z,101467.67
2019-03-23T19:47:58.687Z,101471.98
2019-03-23T19:50:34.201Z,101460.55
2019-03-23T19:53:08.054Z,101474.20
2019-03-23T19:55:42.191Z,101466.77
2019-03-23T19:58:16.431Z,101469.51
2019-03-23T20:00:50.715Z,101471.59
2019-03-23T20:03:25.001Z,101470.05
2019-03-23T20:06:00.547Z,101467.38
2019-03-23T20:08:34.567Z,101470.79
2019-03-23T20:11:08.942Z,101469.03
2019-03-23T20:13:43.050Z,101472.81
2019-03-23T20:16:18.972Z,101472.66
2019-03-23T20:18:53.855Z,101470.45
2019-03-23T20:21:30.612Z,101467.38
2019-03-23T20:24:04.848Z,101460.54
2019-03-23T20:26:40.627Z,101470.50
2019-03-23T20:29:15.097Z,101463.20
2019-03-23T20:31:50.296Z,101457.58
2019-03-23T20:34:24.330Z,101464.03
2019-03-23T20:36:58.691Z,101458.44
2019-03-23T20:39:32.627Z,101461.58
2019-03-23T20:42:06.698Z,101461.13
2019-03-23T20:44:40.683Z,101453.45
2019-03-23T20:47:14.832Z,101449.22
2019-03-23T20:49:48.968Z,101445.70
2019-03-23T20:52:22.914Z,101443.55
2019-03-23T20:54:56.882Z,101446.00
2019-03-23T20:57:37.358Z,101450.73
2019-03-23T21:00:08.784Z,101448.21
2019-03-23T21:02:42.883Z,101447.44
2019-03-23T21:05:16.983Z,101450.98
2019-03-23T21:07:51.194Z,101454.13
2019-03-23T21:10:26.028Z,101456.04
2019-03-23T21:13:00.037Z,101452.98
2019-03-23T21:15:33.965Z,101449.81
2019-03-23T21:18:08.209Z,101449.28
2019-03-23T21:20:42.217Z,101445.49
2019-03-23T21:23:16.090Z,101448.80
2019-03-23T21:25:50.332Z,101454.67
2019-03-23T21:28:24.106Z,101453.45
2019-03-23T21:30:57.660Z,101456.84
2019-03-23T21:33:32.118Z,101461.81
2019-03-23T21:36:05.425Z,101454.15
2019-03-23T21:38:39.217Z,101456.80
2019-03-23T21:41:11.225Z,101454.15
2019-03-23T21:43:43.091Z,101449.38
2019-03-23T21:46:14.841Z,101443.84
2019-03-23T21:48:46.400Z,101444.98
2019-03-23T21:51:18.152Z,101445.06
2019-03-23T21:53:49.920Z,101441.20
2019-03-23T21:56:21.470Z,101437.04
2019-03-23T21:58:53.232Z,101442.14
2019-03-23T22:01:24.689Z,101443.36
2019-03-23T22:03:56.545Z,101428.84
2019-03-23T22:06:28.412Z,101443.34
2019-03-23T22:08:59.959Z,101446.59
2019-03-23T22:11:31.626Z,101440.63
2019-03-23T22:14:03.581Z,101441.61
2019-03-23T22:16:36.673Z,101438.75
2019-03-23T22:19:08.330Z,101438.38
2019-03-23T22:21:40.202Z,101444.11
2019-03-23T22:24:11.661Z,101439.97
2019-03-23T22:26:43.614Z,101437.48
2019-03-23T22:29:15.477Z,101437.75
2019-03-23T22:31:47.041Z,101440.80
2019-03-23T22:34:19.920Z,101442.44
2019-03-23T22:36:51.578Z,101441.44
2019-03-23T22:39:23.437Z,101447.06
2019-03-23T22:41:54.889Z,101442.11
2019-03-23T22:44:26.565Z,101437.61
2019-03-23T22:46:59.328Z,101441.88
2019-03-23T22:49:31.097Z,101450.20
2019-03-23T22:52:02.611Z,101448.03
2019-03-23T22:54:34.306Z,101452.66
2019-03-23T22:57:05.862Z,101447.23
2019-03-23T22:59:37.727Z,101446.52
2019-03-23T23:02:09.391Z,101441.80
2019-03-23T23:04:41.038Z,101444.13
2019-03-23T23:07:12.799Z,101437.36
2019-03-23T23:09:44.350Z,101437.09
2019-03-23T23:12:16.113Z,101437.33
2019-03-23T23:14:47.670Z,101442.63
2019-03-23T23:17:19.428Z,101444.83
2019-03-23T23:19:51.193Z,101437.61
2019-03-23T23:22:22.677Z,101440.14
2019-03-23T23:24:54.402Z,101441.16
2019-03-23T23:27:25.966Z,101442.02
2019-03-23T23:29:57.720Z,101433.05
2019-03-23T23:32:29.378Z,101422.92
2019-03-23T23:35:01.756Z,101417.17
2019-03-23T23:37:33.512Z,101406.44
2019-03-23T23:40:06.910Z,101408.08
2019-03-23T23:42:38.366Z,101404.18
2019-03-23T23:45:15.756Z,101404.35
2019-03-23T23:47:44.029Z,101403.84
2019-03-23T23:50:18.450Z,101397.86
2019-03-23T23:52:50.325Z,101400.97
2019-03-23T23:55:22.176Z,101398.37
2019-03-23T23:57:53.733Z,101402.16
